DHL1407 KMIA-KCVG
Flight info
| Callsign | DHL1407 |
|---|---|
| Flight time | 2h 9m |
| Altitude | 33000 |
| Route | ALTNN2 DUCEN Q87 VIYAP Q69 GURGE/N0463F340 Q93 FISHO/N0464F330 Q93 QUIWE/N0463F340 SPA CUBIM JAKIE6 |
| Aircraft | A306/H-SDE3FGHIRWY/LB1 |
Departure
| Time | 2026-05-07 18:04 |
|---|---|
| Airport | Miami International Airport (KMIA) |
Arrival
| Time | 2026-05-07 20:14 |
|---|---|
| Airport | Cincinnati Northern Kentucky International Airport (KCVG) |
| Time | Latitude | Longitude | Altitude | Speed | Heading |
|---|---|---|---|---|---|
| 2026-05-07 17:46 | 25.79141 | -80.29224 | 21 ft | 0 kts | 209° |
| 2026-05-07 17:52 | 25.79146 | -80.29221 | 26 ft | 2 kts | 209° |
| 2026-05-07 17:52 | 25.79163 | -80.29210 | 21 ft | 3 kts | 209° |
| 2026-05-07 17:53 | 25.79181 | -80.29200 | 24 ft | 3 kts | 209° |
| 2026-05-07 17:53 | 25.79197 | -80.29191 | 21 ft | 3 kts | 186° |
| 2026-05-07 17:53 | 25.79214 | -80.29193 | 23 ft | 3 kts | 144° |
| 2026-05-07 17:53 | 25.79228 | -80.29208 | 24 ft | 3 kts | 116° |
| 2026-05-07 17:54 | 25.79232 | -80.29218 | 23 ft | 0 kts | 108° |
| 2026-05-07 17:56 | 25.79212 | -80.29169 | 21 ft | 14 kts | 117° |
| 2026-05-07 17:56 | 25.79177 | -80.29089 | 22 ft | 11 kts | 114° |
| 2026-05-07 17:56 | 25.79148 | -80.29013 | 22 ft | 9 kts | 111° |
| 2026-05-07 17:57 | 25.79134 | -80.28944 | 20 ft | 9 kts | 89° |
| 2026-05-07 17:57 | 25.79149 | -80.28905 | 21 ft | 8 kts | 53° |
| 2026-05-07 17:57 | 25.79171 | -80.28887 | 19 ft | 1 kts | 28° |
| 2026-05-07 17:57 | 25.79185 | -80.28879 | 20 ft | 3 kts | 27° |
| 2026-05-07 17:58 | 25.79207 | -80.28868 | 19 ft | 4 kts | 20° |
| 2026-05-07 17:58 | 25.79227 | -80.28866 | 19 ft | 3 kts | 354° |
| 2026-05-07 17:58 | 25.79296 | -80.28887 | 21 ft | 1 kts | 343° |
| 2026-05-07 17:59 | 25.79358 | -80.28913 | 24 ft | 17 kts | 330° |
| 2026-05-07 17:59 | 25.79444 | -80.29035 | 21 ft | 21 kts | 303° |
| 2026-05-07 17:59 | 25.79511 | -80.29172 | 22 ft | 20 kts | 296° |
| 2026-05-07 17:59 | 25.79558 | -80.29273 | 21 ft | 12 kts | 297° |
| 2026-05-07 18:00 | 25.79600 | -80.29349 | 21 ft | 11 kts | 301° |
| 2026-05-07 18:00 | 25.79611 | -80.29369 | 22 ft | 0 kts | 300° |
| 2026-05-07 18:00 | 25.79614 | -80.29376 | 22 ft | 5 kts | 300° |
| 2026-05-07 18:00 | 25.79673 | -80.29431 | 23 ft | 18 kts | 341° |
| 2026-05-07 18:01 | 25.79784 | -80.29524 | 25 ft | 20 kts | 303° |
| 2026-05-07 18:01 | 25.79832 | -80.29621 | 21 ft | 11 kts | 301° |
| 2026-05-07 18:01 | 25.79869 | -80.29694 | 23 ft | 11 kts | 298° |
| 2026-05-07 18:01 | 25.79904 | -80.29766 | 23 ft | 11 kts | 297° |
| 2026-05-07 18:02 | 25.79974 | -80.29962 | 19 ft | 16 kts | 288° |
| 2026-05-07 18:02 | 25.79997 | -80.30064 | 21 ft | 11 kts | 285° |
| 2026-05-07 18:02 | 25.80049 | -80.30116 | 22 ft | 8 kts | 358° |
| 2026-05-07 18:03 | 25.80089 | -80.30082 | 20 ft | 7 kts | 67° |
| 2026-05-07 18:03 | 25.80088 | -80.30027 | 19 ft | 7 kts | 95° |
| 2026-05-07 18:03 | 25.80089 | -80.29897 | 19 ft | 37 kts | 86° |
| 2026-05-07 18:03 | 25.80121 | -80.29271 | 23 ft | 123 kts | 87° |
| 2026-05-07 18:04 | 25.80172 | -80.28039 | 220 ft | 188 kts | 89° |
| 2026-05-07 18:04 | 25.80221 | -80.26450 | 968 ft | 216 kts | 89° |
| 2026-05-07 18:04 | 25.80295 | -80.24753 | 1495 ft | 227 kts | 87° |
| 2026-05-07 18:04 | 25.80525 | -80.23016 | 1914 ft | 226 kts | 76° |
| 2026-05-07 18:05 | 25.81122 | -80.21415 | 2378 ft | 228 kts | 63° |
| 2026-05-07 18:05 | 25.81855 | -80.19791 | 2728 ft | 241 kts | 63° |
| 2026-05-07 18:05 | 25.82697 | -80.18206 | 3387 ft | 237 kts | 54° |
| 2026-05-07 18:05 | 25.83797 | -80.16864 | 3906 ft | 245 kts | 41° |
| 2026-05-07 18:06 | 25.85216 | -80.15729 | 4168 ft | 256 kts | 27° |
| 2026-05-07 18:06 | 25.86939 | -80.15075 | 4288 ft | 271 kts | 9° |
| 2026-05-07 18:06 | 25.88857 | -80.15019 | 4252 ft | 280 kts | 352° |
| 2026-05-07 18:06 | 25.90723 | -80.15621 | 4510 ft | 281 kts | 334° |
| 2026-05-07 18:07 | 25.92473 | -80.16591 | 4602 ft | 281 kts | 335° |
| 2026-05-07 18:07 | 25.94310 | -80.17316 | 4682 ft | 280 kts | 340° |
| 2026-05-07 18:07 | 25.96168 | -80.17955 | 5354 ft | 279 kts | 345° |
| 2026-05-07 18:07 | 25.98161 | -80.18524 | 5358 ft | 321 kts | 344° |
| 2026-05-07 18:08 | 26.00489 | -80.19033 | 5264 ft | 355 kts | 351° |
| 2026-05-07 18:08 | 26.02962 | -80.19372 | 5896 ft | 357 kts | 353° |
| 2026-05-07 18:08 | 26.05395 | -80.19658 | 6981 ft | 346 kts | 354° |
| 2026-05-07 18:08 | 26.07761 | -80.19920 | 8074 ft | 336 kts | 354° |
| 2026-05-07 18:09 | 26.10036 | -80.20165 | 9208 ft | 327 kts | 355° |
| 2026-05-07 18:09 | 26.12275 | -80.20401 | 10361 ft | 320 kts | 355° |
| 2026-05-07 18:09 | 26.14523 | -80.20636 | 10982 ft | 332 kts | 355° |
| 2026-05-07 18:09 | 26.16896 | -80.20882 | 11307 ft | 351 kts | 355° |
| 2026-05-07 18:10 | 26.19390 | -80.21137 | 11608 ft | 368 kts | 355° |
| 2026-05-07 18:10 | 26.21986 | -80.21377 | 11985 ft | 380 kts | 355° |
| 2026-05-07 18:10 | 26.24640 | -80.21614 | 12504 ft | 385 kts | 354° |
| 2026-05-07 18:10 | 26.27319 | -80.21853 | 13140 ft | 388 kts | 354° |
| 2026-05-07 18:11 | 26.30019 | -80.22095 | 13757 ft | 391 kts | 354° |
| 2026-05-07 18:11 | 26.31822 | -80.22256 | 14139 ft | 392 kts | 354° |
| 2026-05-07 18:11 | 26.35486 | -80.22583 | 14858 ft | 397 kts | 354° |
| 2026-05-07 18:11 | 26.38254 | -80.22839 | 15418 ft | 400 kts | 354° |
| 2026-05-07 18:12 | 26.41031 | -80.23120 | 15984 ft | 402 kts | 353° |
| 2026-05-07 18:12 | 26.43828 | -80.23408 | 16552 ft | 404 kts | 353° |
| 2026-05-07 18:12 | 26.46635 | -80.23697 | 17114 ft | 407 kts | 353° |
| 2026-05-07 18:12 | 26.49425 | -80.23984 | 17648 ft | 409 kts | 353° |
| 2026-05-07 18:13 | 26.52277 | -80.24278 | 18182 ft | 412 kts | 353° |
| 2026-05-07 18:13 | 26.55138 | -80.24573 | 18651 ft | 414 kts | 352° |
| 2026-05-07 18:13 | 26.58003 | -80.24968 | 19072 ft | 416 kts | 349° |
| 2026-05-07 18:13 | 26.60883 | -80.25443 | 19475 ft | 419 kts | 349° |
| 2026-05-07 18:14 | 26.63774 | -80.25931 | 19866 ft | 421 kts | 349° |
| 2026-05-07 18:14 | 26.66683 | -80.26421 | 20256 ft | 424 kts | 348° |
| 2026-05-07 18:14 | 26.69603 | -80.26944 | 20637 ft | 426 kts | 346° |
| 2026-05-07 18:14 | 26.72452 | -80.27835 | 21004 ft | 425 kts | 338° |
| 2026-05-07 18:15 | 26.75242 | -80.28967 | 21378 ft | 427 kts | 336° |
| 2026-05-07 18:15 | 26.78029 | -80.30141 | 21757 ft | 429 kts | 336° |
| 2026-05-07 18:15 | 26.80830 | -80.31321 | 22110 ft | 431 kts | 336° |
| 2026-05-07 18:15 | 26.83619 | -80.32494 | 22448 ft | 434 kts | 336° |
| 2026-05-07 18:16 | 26.86447 | -80.33680 | 22833 ft | 435 kts | 336° |
| 2026-05-07 18:16 | 26.89302 | -80.34877 | 23210 ft | 436 kts | 336° |
| 2026-05-07 18:16 | 26.92154 | -80.36073 | 23533 ft | 438 kts | 336° |
| 2026-05-07 18:16 | 26.95022 | -80.37261 | 23810 ft | 441 kts | 336° |
| 2026-05-07 18:17 | 26.97924 | -80.38433 | 24059 ft | 443 kts | 336° |
| 2026-05-07 18:17 | 27.00791 | -80.39587 | 24331 ft | 445 kts | 336° |
| 2026-05-07 18:17 | 27.03714 | -80.40764 | 24590 ft | 446 kts | 336° |
| 2026-05-07 18:17 | 27.06650 | -80.41948 | 24848 ft | 448 kts | 336° |
| 2026-05-07 18:18 | 27.09592 | -80.43155 | 25100 ft | 449 kts | 335° |
| 2026-05-07 18:18 | 27.12502 | -80.44423 | 25347 ft | 450 kts | 335° |
| 2026-05-07 18:18 | 27.15424 | -80.45715 | 25608 ft | 452 kts | 335° |
| 2026-05-07 18:18 | 27.18355 | -80.47012 | 25882 ft | 453 kts | 334° |
| 2026-05-07 18:19 | 27.21287 | -80.48310 | 26132 ft | 454 kts | 334° |
| 2026-05-07 18:19 | 27.24197 | -80.49597 | 26366 ft | 455 kts | 334° |
| 2026-05-07 18:19 | 27.27147 | -80.50902 | 26596 ft | 457 kts | 334° |
| 2026-05-07 18:19 | 27.30113 | -80.52215 | 26811 ft | 459 kts | 334° |
| 2026-05-07 18:20 | 27.33086 | -80.53531 | 27033 ft | 460 kts | 334° |
| 2026-05-07 18:20 | 27.36081 | -80.54853 | 27216 ft | 463 kts | 335° |
| 2026-05-07 18:20 | 27.39109 | -80.56096 | 27413 ft | 465 kts | 336° |
| 2026-05-07 18:20 | 27.42173 | -80.57311 | 27624 ft | 467 kts | 336° |
| 2026-05-07 18:21 | 27.45243 | -80.58524 | 27880 ft | 467 kts | 336° |
| 2026-05-07 18:21 | 27.48273 | -80.59724 | 28166 ft | 466 kts | 336° |
| 2026-05-07 18:21 | 27.51330 | -80.60937 | 28466 ft | 465 kts | 336° |
| 2026-05-07 18:21 | 27.54381 | -80.62149 | 28765 ft | 464 kts | 336° |
| 2026-05-07 18:22 | 27.57420 | -80.63358 | 29048 ft | 463 kts | 336° |
| 2026-05-07 18:22 | 27.58451 | -80.63769 | 29162 ft | 463 kts | 336° |
| 2026-05-07 18:22 | 27.63497 | -80.65779 | 29690 ft | 462 kts | 336° |
| 2026-05-07 18:22 | 27.66528 | -80.66988 | 30010 ft | 461 kts | 336° |
| 2026-05-07 18:23 | 27.69515 | -80.68180 | 30298 ft | 460 kts | 336° |
| 2026-05-07 18:23 | 27.72536 | -80.69387 | 30564 ft | 460 kts | 336° |
| 2026-05-07 18:23 | 27.75553 | -80.70592 | 30861 ft | 459 kts | 335° |
| 2026-05-07 18:23 | 27.78558 | -80.71794 | 31151 ft | 458 kts | 335° |
| 2026-05-07 18:24 | 27.81569 | -80.72999 | 31451 ft | 457 kts | 335° |
| 2026-05-07 18:24 | 27.84574 | -80.74202 | 31740 ft | 456 kts | 335° |
| 2026-05-07 18:24 | 27.86552 | -80.74994 | 31950 ft | 455 kts | 335° |
| 2026-05-07 18:24 | 27.90505 | -80.76578 | 32327 ft | 454 kts | 335° |
| 2026-05-07 18:25 | 27.93485 | -80.77773 | 32635 ft | 453 kts | 335° |
| 2026-05-07 18:25 | 27.95494 | -80.78579 | 32839 ft | 453 kts | 335° |
| 2026-05-07 18:25 | 27.98430 | -80.79758 | 32949 ft | 450 kts | 335° |
| 2026-05-07 18:25 | 28.01342 | -80.80923 | 32953 ft | 436 kts | 335° |
| 2026-05-07 18:26 | 28.05091 | -80.82427 | 32959 ft | 427 kts | 335° |
| 2026-05-07 18:26 | 28.09780 | -80.84317 | 32960 ft | 425 kts | 335° |
| 2026-05-07 18:27 | 28.15326 | -80.86553 | 32955 ft | 425 kts | 335° |
| 2026-05-07 18:27 | 28.20898 | -80.88801 | 32958 ft | 425 kts | 335° |
| 2026-05-07 18:28 | 28.26475 | -80.91052 | 32957 ft | 425 kts | 335° |
| 2026-05-07 18:28 | 28.32059 | -80.93307 | 32961 ft | 425 kts | 334° |
| 2026-05-07 18:29 | 28.37640 | -80.95565 | 32970 ft | 426 kts | 334° |
| 2026-05-07 18:29 | 28.43213 | -80.97821 | 32959 ft | 424 kts | 334° |
| 2026-05-07 18:30 | 28.48771 | -81.00074 | 32961 ft | 424 kts | 334° |
| 2026-05-07 18:30 | 28.54299 | -81.02318 | 32959 ft | 424 kts | 334° |
| 2026-05-07 18:31 | 28.59859 | -81.04576 | 32954 ft | 424 kts | 334° |
| 2026-05-07 18:31 | 28.65427 | -81.06842 | 32951 ft | 424 kts | 334° |
| 2026-05-07 18:32 | 28.70957 | -81.09092 | 32959 ft | 423 kts | 334° |
| 2026-05-07 18:32 | 28.76499 | -81.11351 | 32961 ft | 422 kts | 334° |
| 2026-05-07 18:33 | 28.82042 | -81.13613 | 32962 ft | 423 kts | 334° |
| 2026-05-07 18:33 | 28.87582 | -81.15877 | 32947 ft | 423 kts | 333° |
| 2026-05-07 18:34 | 28.93118 | -81.18142 | 32957 ft | 422 kts | 333° |
| 2026-05-07 18:34 | 28.98621 | -81.20395 | 32964 ft | 422 kts | 333° |
| 2026-05-07 18:35 | 29.04151 | -81.22662 | 32965 ft | 422 kts | 333° |
| 2026-05-07 18:35 | 29.09685 | -81.24933 | 32963 ft | 422 kts | 333° |
| 2026-05-07 18:36 | 29.15217 | -81.27206 | 32965 ft | 422 kts | 333° |
| 2026-05-07 18:36 | 29.20749 | -81.29482 | 32958 ft | 422 kts | 333° |
| 2026-05-07 18:37 | 29.26285 | -81.31689 | 32967 ft | 427 kts | 336° |
| 2026-05-07 18:37 | 29.32260 | -81.32673 | 32946 ft | 438 kts | 347° |
| 2026-05-07 18:38 | 29.38373 | -81.33045 | 32952 ft | 440 kts | 349° |
| 2026-05-07 18:38 | 29.44505 | -81.33338 | 32955 ft | 440 kts | 349° |
| 2026-05-07 18:39 | 29.50584 | -81.33660 | 32947 ft | 440 kts | 349° |
| 2026-05-07 18:39 | 29.56700 | -81.34015 | 32943 ft | 440 kts | 348° |
| 2026-05-07 18:40 | 29.62817 | -81.34379 | 32933 ft | 439 kts | 348° |
| 2026-05-07 18:40 | 29.68925 | -81.34743 | 32947 ft | 439 kts | 348° |
| 2026-05-07 18:41 | 29.75038 | -81.35107 | 32957 ft | 439 kts | 348° |
| 2026-05-07 18:41 | 29.81105 | -81.35467 | 32963 ft | 439 kts | 348° |
| 2026-05-07 18:42 | 29.87215 | -81.35829 | 32966 ft | 439 kts | 348° |
| 2026-05-07 18:42 | 29.93327 | -81.36193 | 32974 ft | 439 kts | 348° |
| 2026-05-07 18:43 | 29.99438 | -81.36557 | 32979 ft | 439 kts | 348° |
| 2026-05-07 18:43 | 30.05521 | -81.36920 | 32971 ft | 439 kts | 348° |
| 2026-05-07 18:44 | 30.11632 | -81.37285 | 32999 ft | 439 kts | 348° |
| 2026-05-07 18:44 | 30.17729 | -81.37647 | 32951 ft | 436 kts | 347° |
| 2026-05-07 18:45 | 30.23758 | -81.38006 | 32951 ft | 435 kts | 347° |
| 2026-05-07 18:45 | 30.29809 | -81.38370 | 32953 ft | 435 kts | 347° |
| 2026-05-07 18:46 | 30.35856 | -81.38735 | 32954 ft | 435 kts | 347° |
| 2026-05-07 18:46 | 30.41872 | -81.39097 | 32954 ft | 435 kts | 347° |
| 2026-05-07 18:47 | 30.47924 | -81.39453 | 32954 ft | 435 kts | 348° |
| 2026-05-07 18:47 | 30.53941 | -81.39773 | 32943 ft | 435 kts | 348° |
| 2026-05-07 18:48 | 30.60000 | -81.40087 | 32945 ft | 435 kts | 348° |
| 2026-05-07 18:48 | 30.66054 | -81.40405 | 32944 ft | 435 kts | 348° |
| 2026-05-07 18:49 | 30.72110 | -81.40725 | 32946 ft | 435 kts | 348° |
| 2026-05-07 18:49 | 30.78157 | -81.41046 | 32936 ft | 435 kts | 348° |
| 2026-05-07 18:50 | 30.84205 | -81.41367 | 32925 ft | 435 kts | 348° |
| 2026-05-07 18:50 | 30.90220 | -81.41688 | 32917 ft | 435 kts | 348° |
| 2026-05-07 18:51 | 30.96274 | -81.42011 | 32886 ft | 435 kts | 348° |
| 2026-05-07 18:51 | 31.02355 | -81.42338 | 32856 ft | 438 kts | 349° |
| 2026-05-07 18:52 | 31.08452 | -81.42665 | 32843 ft | 439 kts | 349° |
| 2026-05-07 18:52 | 31.14525 | -81.42989 | 32840 ft | 439 kts | 349° |
| 2026-05-07 18:53 | 31.20639 | -81.43315 | 32831 ft | 439 kts | 349° |
| 2026-05-07 18:53 | 31.26763 | -81.43611 | 32836 ft | 441 kts | 351° |
| 2026-05-07 18:54 | 31.32916 | -81.43710 | 32834 ft | 443 kts | 352° |
| 2026-05-07 18:54 | 31.39056 | -81.43747 | 32842 ft | 443 kts | 352° |
| 2026-05-07 18:55 | 31.45231 | -81.43737 | 32851 ft | 447 kts | 356° |
| 2026-05-07 18:55 | 31.51428 | -81.42237 | 32888 ft | 461 kts | 9° |
| 2026-05-07 18:56 | 31.57544 | -81.39843 | 32856 ft | 465 kts | 12° |
| 2026-05-07 18:56 | 31.63648 | -81.37283 | 32856 ft | 466 kts | 12° |
| 2026-05-07 18:57 | 31.69715 | -81.34743 | 32850 ft | 466 kts | 12° |
| 2026-05-07 18:57 | 31.75872 | -81.32199 | 32848 ft | 475 kts | 12° |
| 2026-05-07 18:58 | 31.82180 | -81.29607 | 32828 ft | 483 kts | 12° |
| 2026-05-07 18:58 | 31.88538 | -81.26978 | 32817 ft | 484 kts | 12° |
| 2026-05-07 18:59 | 31.94916 | -81.24445 | 32814 ft | 478 kts | 7° |
| 2026-05-07 18:59 | 32.01377 | -81.23487 | 32816 ft | 467 kts | 356° |
| 2026-05-07 19:00 | 32.07859 | -81.23101 | 32852 ft | 467 kts | 354° |
| 2026-05-07 19:00 | 32.14379 | -81.22822 | 32853 ft | 469 kts | 354° |
| 2026-05-07 19:01 | 32.20911 | -81.22527 | 32855 ft | 469 kts | 354° |
| 2026-05-07 19:01 | 32.27445 | -81.22208 | 32848 ft | 469 kts | 354° |
| 2026-05-07 19:02 | 32.33978 | -81.21880 | 32844 ft | 470 kts | 354° |
| 2026-05-07 19:02 | 32.40488 | -81.21554 | 32827 ft | 472 kts | 354° |
| 2026-05-07 19:03 | 32.47062 | -81.21313 | 32821 ft | 467 kts | 349° |
| 2026-05-07 19:03 | 32.53367 | -81.22385 | 32819 ft | 457 kts | 341° |
| 2026-05-07 19:04 | 32.59593 | -81.23892 | 32843 ft | 455 kts | 339° |
| 2026-05-07 19:04 | 32.65799 | -81.25482 | 32806 ft | 457 kts | 339° |
| 2026-05-07 19:05 | 32.72030 | -81.27072 | 32829 ft | 458 kts | 339° |
| 2026-05-07 19:05 | 32.78274 | -81.28645 | 32829 ft | 458 kts | 338° |
| 2026-05-07 19:06 | 32.84525 | -81.30218 | 32851 ft | 460 kts | 338° |
| 2026-05-07 19:06 | 32.93921 | -81.32584 | 32854 ft | 460 kts | 337° |
| 2026-05-07 19:07 | 33.00140 | -81.34154 | 32853 ft | 459 kts | 337° |
| 2026-05-07 19:07 | 33.06391 | -81.35735 | 32823 ft | 459 kts | 337° |
| 2026-05-07 19:08 | 33.12650 | -81.37320 | 32826 ft | 459 kts | 337° |
| 2026-05-07 19:08 | 33.18902 | -81.38906 | 32837 ft | 459 kts | 337° |
| 2026-05-07 19:09 | 33.22027 | -81.39699 | 32973 ft | 459 kts | 337° |
| 2026-05-07 19:09 | 33.25157 | -81.40495 | 33263 ft | 458 kts | 337° |
| 2026-05-07 19:09 | 33.28314 | -81.41177 | 33540 ft | 464 kts | 341° |
| 2026-05-07 19:09 | 33.31525 | -81.41680 | 33811 ft | 465 kts | 342° |
| 2026-05-07 19:10 | 33.34702 | -81.42134 | 33984 ft | 468 kts | 342° |
| 2026-05-07 19:10 | 33.37961 | -81.42577 | 34114 ft | 471 kts | 343° |
| 2026-05-07 19:10 | 33.41224 | -81.43006 | 34332 ft | 471 kts | 341° |
| 2026-05-07 19:10 | 33.44469 | -81.43425 | 34656 ft | 468 kts | 341° |
| 2026-05-07 19:11 | 33.47710 | -81.43847 | 34797 ft | 469 kts | 341° |
| 2026-05-07 19:11 | 33.50921 | -81.44263 | 34801 ft | 458 kts | 341° |
| 2026-05-07 19:11 | 33.54053 | -81.44662 | 34797 ft | 447 kts | 341° |
| 2026-05-07 19:11 | 33.57098 | -81.45060 | 34792 ft | 443 kts | 340° |
| 2026-05-07 19:12 | 33.63211 | -81.45892 | 34789 ft | 441 kts | 340° |
| 2026-05-07 19:12 | 33.69315 | -81.46728 | 34790 ft | 441 kts | 339° |
| 2026-05-07 19:13 | 33.75417 | -81.47555 | 34785 ft | 440 kts | 339° |
| 2026-05-07 19:13 | 33.81478 | -81.48372 | 34783 ft | 440 kts | 339° |
| 2026-05-07 19:14 | 33.87568 | -81.49193 | 34781 ft | 440 kts | 339° |
| 2026-05-07 19:14 | 33.93647 | -81.50051 | 34803 ft | 435 kts | 336° |
| 2026-05-07 19:15 | 33.96544 | -81.50853 | 34781 ft | 422 kts | 330° |
| 2026-05-07 19:15 | 33.99358 | -81.51835 | 34781 ft | 419 kts | 328° |
| 2026-05-07 19:15 | 34.03973 | -81.53579 | 34778 ft | 417 kts | 327° |
| 2026-05-07 19:16 | 34.09484 | -81.55746 | 34781 ft | 417 kts | 327° |
| 2026-05-07 19:16 | 34.15003 | -81.57918 | 34825 ft | 417 kts | 327° |
| 2026-05-07 19:17 | 34.20524 | -81.60076 | 34864 ft | 417 kts | 327° |
| 2026-05-07 19:17 | 34.26028 | -81.62222 | 34845 ft | 417 kts | 327° |
| 2026-05-07 19:18 | 34.31553 | -81.64378 | 34844 ft | 417 kts | 327° |
| 2026-05-07 19:18 | 34.37072 | -81.66535 | 34846 ft | 416 kts | 327° |
| 2026-05-07 19:19 | 34.42583 | -81.68691 | 34838 ft | 416 kts | 327° |
| 2026-05-07 19:19 | 34.48098 | -81.70854 | 34812 ft | 416 kts | 326° |
| 2026-05-07 19:20 | 34.53568 | -81.73004 | 34807 ft | 416 kts | 326° |
| 2026-05-07 19:20 | 34.59090 | -81.75176 | 34804 ft | 416 kts | 326° |
| 2026-05-07 19:21 | 34.64597 | -81.77344 | 34802 ft | 416 kts | 326° |
| 2026-05-07 19:21 | 34.70102 | -81.79514 | 34800 ft | 415 kts | 326° |
| 2026-05-07 19:22 | 34.75602 | -81.81684 | 34792 ft | 414 kts | 326° |
| 2026-05-07 19:22 | 34.81045 | -81.83834 | 34792 ft | 413 kts | 326° |
| 2026-05-07 19:23 | 34.86507 | -81.86000 | 34793 ft | 413 kts | 326° |
| 2026-05-07 19:23 | 34.91981 | -81.88174 | 34794 ft | 413 kts | 326° |
| 2026-05-07 19:24 | 34.97408 | -81.90329 | 34797 ft | 412 kts | 326° |
| 2026-05-07 19:24 | 35.02826 | -81.92535 | 34792 ft | 402 kts | 322° |
| 2026-05-07 19:25 | 35.07877 | -81.95243 | 34790 ft | 394 kts | 319° |
| 2026-05-07 19:25 | 35.12839 | -81.98068 | 34784 ft | 392 kts | 319° |
| 2026-05-07 19:26 | 35.16390 | -82.00117 | 34779 ft | 392 kts | 319° |
| 2026-05-07 19:26 | 35.19191 | -82.01733 | 34778 ft | 392 kts | 319° |
| 2026-05-07 19:27 | 35.24138 | -82.04579 | 34862 ft | 392 kts | 319° |
| 2026-05-07 19:27 | 35.29062 | -82.07399 | 34781 ft | 388 kts | 319° |
| 2026-05-07 19:28 | 35.33947 | -82.10202 | 34783 ft | 386 kts | 318° |
| 2026-05-07 19:28 | 35.37165 | -82.12055 | 34788 ft | 386 kts | 318° |
| 2026-05-07 19:29 | 35.42054 | -82.14876 | 34785 ft | 386 kts | 318° |
| 2026-05-07 19:29 | 35.46878 | -82.17660 | 34784 ft | 385 kts | 318° |
| 2026-05-07 19:30 | 35.51743 | -82.20473 | 34808 ft | 385 kts | 318° |
| 2026-05-07 19:30 | 35.56581 | -82.23267 | 34796 ft | 383 kts | 319° |
| 2026-05-07 19:31 | 35.61399 | -82.26067 | 34805 ft | 391 kts | 319° |
| 2026-05-07 19:31 | 35.66394 | -82.28991 | 34806 ft | 404 kts | 319° |
| 2026-05-07 19:32 | 35.71593 | -82.31912 | 34815 ft | 411 kts | 319° |
| 2026-05-07 19:32 | 35.76749 | -82.34926 | 34818 ft | 408 kts | 319° |
| 2026-05-07 19:33 | 35.81865 | -82.37936 | 34826 ft | 407 kts | 319° |
| 2026-05-07 19:33 | 35.86976 | -82.40922 | 34872 ft | 408 kts | 319° |
| 2026-05-07 19:34 | 35.92107 | -82.43921 | 34847 ft | 407 kts | 319° |
| 2026-05-07 19:34 | 35.97223 | -82.46918 | 34852 ft | 407 kts | 319° |
| 2026-05-07 19:35 | 36.02339 | -82.49915 | 34908 ft | 406 kts | 318° |
| 2026-05-07 19:35 | 36.07450 | -82.52917 | 34876 ft | 406 kts | 318° |
| 2026-05-07 19:36 | 36.12525 | -82.55900 | 34900 ft | 406 kts | 318° |
| 2026-05-07 19:36 | 36.17624 | -82.58901 | 34901 ft | 406 kts | 318° |
| 2026-05-07 19:37 | 36.22728 | -82.61908 | 34911 ft | 406 kts | 318° |
| 2026-05-07 19:37 | 36.27834 | -82.64918 | 35035 ft | 406 kts | 318° |
| 2026-05-07 19:38 | 36.32933 | -82.67928 | 34991 ft | 405 kts | 318° |
| 2026-05-07 19:38 | 36.38014 | -82.70934 | 34987 ft | 404 kts | 318° |
| 2026-05-07 19:39 | 36.43092 | -82.73943 | 34981 ft | 404 kts | 318° |
| 2026-05-07 19:39 | 36.48137 | -82.76940 | 34977 ft | 404 kts | 318° |
| 2026-05-07 19:40 | 36.53207 | -82.79954 | 35048 ft | 403 kts | 318° |
| 2026-05-07 19:40 | 36.58245 | -82.82948 | 34968 ft | 399 kts | 317° |
| 2026-05-07 19:41 | 36.63252 | -82.85932 | 34967 ft | 398 kts | 317° |
| 2026-05-07 19:41 | 36.68243 | -82.88911 | 34971 ft | 397 kts | 317° |
| 2026-05-07 19:42 | 36.73225 | -82.91904 | 34964 ft | 399 kts | 318° |
| 2026-05-07 19:42 | 36.78201 | -82.94865 | 34963 ft | 398 kts | 317° |
| 2026-05-07 19:43 | 36.83179 | -82.97854 | 34963 ft | 397 kts | 317° |
| 2026-05-07 19:43 | 36.88172 | -83.00827 | 34973 ft | 399 kts | 319° |
| 2026-05-07 19:44 | 36.93235 | -83.03645 | 34776 ft | 401 kts | 319° |
| 2026-05-07 19:44 | 36.95789 | -83.05055 | 34550 ft | 400 kts | 319° |
| 2026-05-07 19:44 | 36.98331 | -83.06479 | 34312 ft | 397 kts | 317° |
| 2026-05-07 19:45 | 37.03082 | -83.09753 | 34264 ft | 388 kts | 313° |
| 2026-05-07 19:45 | 37.07744 | -83.13163 | 34263 ft | 387 kts | 313° |
| 2026-05-07 19:46 | 37.12386 | -83.16589 | 34273 ft | 386 kts | 313° |
| 2026-05-07 19:46 | 37.17012 | -83.20006 | 34274 ft | 385 kts | 313° |
| 2026-05-07 19:47 | 37.21626 | -83.23422 | 34281 ft | 385 kts | 313° |
| 2026-05-07 19:47 | 37.26201 | -83.26821 | 34275 ft | 384 kts | 313° |
| 2026-05-07 19:48 | 37.30807 | -83.30242 | 34330 ft | 385 kts | 313° |
| 2026-05-07 19:48 | 37.35440 | -83.33691 | 34322 ft | 388 kts | 313° |
| 2026-05-07 19:49 | 37.40092 | -83.37157 | 34320 ft | 388 kts | 314° |
| 2026-05-07 19:49 | 37.44745 | -83.40625 | 34314 ft | 388 kts | 314° |
| 2026-05-07 19:50 | 37.49363 | -83.44072 | 34289 ft | 388 kts | 313° |
| 2026-05-07 19:50 | 37.54001 | -83.47544 | 34356 ft | 388 kts | 314° |
| 2026-05-07 19:51 | 37.58672 | -83.51051 | 34299 ft | 393 kts | 315° |
| 2026-05-07 19:51 | 37.63379 | -83.54585 | 34270 ft | 394 kts | 315° |
| 2026-05-07 19:52 | 37.65740 | -83.56356 | 33989 ft | 394 kts | 315° |
| 2026-05-07 19:52 | 37.68095 | -83.58125 | 33593 ft | 394 kts | 315° |
| 2026-05-07 19:52 | 37.70460 | -83.59905 | 33186 ft | 396 kts | 315° |
| 2026-05-07 19:52 | 37.72796 | -83.61666 | 32778 ft | 398 kts | 316° |
| 2026-05-07 19:53 | 37.75180 | -83.63464 | 32383 ft | 400 kts | 316° |
| 2026-05-07 19:53 | 37.77580 | -83.65275 | 31984 ft | 402 kts | 316° |
| 2026-05-07 19:53 | 37.79991 | -83.67096 | 31576 ft | 404 kts | 317° |
| 2026-05-07 19:53 | 37.82420 | -83.68929 | 30939 ft | 407 kts | 317° |
| 2026-05-07 19:54 | 37.84862 | -83.70777 | 30306 ft | 411 kts | 318° |
| 2026-05-07 19:54 | 37.87336 | -83.72650 | 29597 ft | 415 kts | 318° |
| 2026-05-07 19:54 | 37.89825 | -83.74534 | 28865 ft | 418 kts | 319° |
| 2026-05-07 19:54 | 37.92327 | -83.76427 | 28155 ft | 421 kts | 319° |
| 2026-05-07 19:55 | 37.94849 | -83.78337 | 27461 ft | 424 kts | 319° |
| 2026-05-07 19:55 | 37.97358 | -83.80241 | 26810 ft | 426 kts | 319° |
| 2026-05-07 19:55 | 37.99908 | -83.82178 | 26148 ft | 429 kts | 320° |
| 2026-05-07 19:55 | 38.02480 | -83.84132 | 25506 ft | 430 kts | 320° |
| 2026-05-07 19:56 | 38.05043 | -83.86077 | 24891 ft | 427 kts | 320° |
| 2026-05-07 19:56 | 38.07563 | -83.87987 | 24258 ft | 415 kts | 320° |
| 2026-05-07 19:56 | 38.10019 | -83.89851 | 23637 ft | 407 kts | 320° |
| 2026-05-07 19:56 | 38.12434 | -83.91691 | 22914 ft | 402 kts | 320° |
| 2026-05-07 19:57 | 38.14819 | -83.93513 | 22198 ft | 398 kts | 320° |
| 2026-05-07 19:57 | 38.17180 | -83.95317 | 21496 ft | 394 kts | 321° |
| 2026-05-07 19:57 | 38.19523 | -83.97109 | 20791 ft | 390 kts | 321° |
| 2026-05-07 19:57 | 38.21805 | -83.98856 | 20105 ft | 387 kts | 321° |
| 2026-05-07 19:58 | 38.24108 | -84.00621 | 19431 ft | 384 kts | 321° |
| 2026-05-07 19:58 | 38.26387 | -84.02365 | 18754 ft | 377 kts | 321° |
| 2026-05-07 19:58 | 38.28610 | -84.04064 | 18059 ft | 370 kts | 321° |
| 2026-05-07 19:58 | 38.30806 | -84.05750 | 17313 ft | 367 kts | 321° |
| 2026-05-07 19:59 | 38.32982 | -84.07424 | 16588 ft | 364 kts | 322° |
| 2026-05-07 19:59 | 38.35142 | -84.09087 | 15881 ft | 361 kts | 322° |
| 2026-05-07 19:59 | 38.37287 | -84.10738 | 15183 ft | 359 kts | 322° |
| 2026-05-07 19:59 | 38.39418 | -84.12378 | 14502 ft | 356 kts | 322° |
| 2026-05-07 20:00 | 38.41536 | -84.14010 | 13835 ft | 354 kts | 323° |
| 2026-05-07 20:00 | 38.43636 | -84.15602 | 13080 ft | 343 kts | 324° |
| 2026-05-07 20:00 | 38.45646 | -84.17058 | 12400 ft | 322 kts | 325° |
| 2026-05-07 20:00 | 38.47529 | -84.18414 | 12032 ft | 308 kts | 324° |
| 2026-05-07 20:01 | 38.49351 | -84.19731 | 11894 ft | 291 kts | 324° |
| 2026-05-07 20:01 | 38.51071 | -84.20974 | 11885 ft | 278 kts | 324° |
| 2026-05-07 20:01 | 38.52743 | -84.22190 | 11899 ft | 276 kts | 323° |
| 2026-05-07 20:01 | 38.54412 | -84.23408 | 11897 ft | 276 kts | 323° |
| 2026-05-07 20:02 | 38.56081 | -84.24624 | 11898 ft | 276 kts | 323° |
| 2026-05-07 20:02 | 38.57187 | -84.25430 | 11897 ft | 276 kts | 324° |
| 2026-05-07 20:02 | 38.58854 | -84.26643 | 11894 ft | 276 kts | 324° |
| 2026-05-07 20:02 | 38.60522 | -84.27857 | 11896 ft | 276 kts | 323° |
| 2026-05-07 20:03 | 38.62684 | -84.29553 | 11894 ft | 272 kts | 316° |
| 2026-05-07 20:03 | 38.63970 | -84.31265 | 11893 ft | 264 kts | 300° |
| 2026-05-07 20:03 | 38.64543 | -84.32627 | 11893 ft | 260 kts | 289° |
| 2026-05-07 20:03 | 38.64939 | -84.34865 | 11898 ft | 258 kts | 274° |
| 2026-05-07 20:04 | 38.64998 | -84.37153 | 11810 ft | 258 kts | 270° |
| 2026-05-07 20:04 | 38.64996 | -84.39450 | 11430 ft | 257 kts | 270° |
| 2026-05-07 20:04 | 38.64991 | -84.41739 | 11004 ft | 257 kts | 270° |
| 2026-05-07 20:04 | 38.64992 | -84.44016 | 10586 ft | 256 kts | 270° |
| 2026-05-07 20:05 | 38.64997 | -84.46295 | 10172 ft | 256 kts | 270° |
| 2026-05-07 20:05 | 38.65005 | -84.48576 | 9743 ft | 256 kts | 271° |
| 2026-05-07 20:05 | 38.65170 | -84.50839 | 9286 ft | 256 kts | 283° |
| 2026-05-07 20:05 | 38.65918 | -84.52901 | 8819 ft | 259 kts | 304° |
| 2026-05-07 20:06 | 38.67261 | -84.54407 | 8378 ft | 264 kts | 325° |
| 2026-05-07 20:06 | 38.68885 | -84.55492 | 7933 ft | 261 kts | 331° |
| 2026-05-07 20:06 | 38.70492 | -84.56466 | 7487 ft | 250 kts | 332° |
| 2026-05-07 20:06 | 38.72038 | -84.57405 | 7061 ft | 241 kts | 332° |
| 2026-05-07 20:07 | 38.73520 | -84.58316 | 6674 ft | 232 kts | 333° |
| 2026-05-07 20:07 | 38.74954 | -84.59207 | 6295 ft | 227 kts | 333° |
| 2026-05-07 20:07 | 38.76361 | -84.60084 | 5853 ft | 224 kts | 333° |
| 2026-05-07 20:07 | 38.77763 | -84.60961 | 5426 ft | 224 kts | 333° |
| 2026-05-07 20:08 | 38.79155 | -84.61834 | 4986 ft | 221 kts | 332° |
| 2026-05-07 20:08 | 38.80534 | -84.62698 | 4548 ft | 220 kts | 332° |
| 2026-05-07 20:08 | 38.81903 | -84.63558 | 4153 ft | 219 kts | 332° |
| 2026-05-07 20:08 | 38.83259 | -84.64406 | 3792 ft | 220 kts | 333° |
| 2026-05-07 20:09 | 38.84622 | -84.65259 | 3446 ft | 214 kts | 332° |
| 2026-05-07 20:09 | 38.85931 | -84.66088 | 3137 ft | 205 kts | 333° |
| 2026-05-07 20:09 | 38.87238 | -84.66732 | 2972 ft | 199 kts | 345° |
| 2026-05-07 20:10 | 38.89874 | -84.66924 | 2963 ft | 178 kts | 357° |
| 2026-05-07 20:10 | 38.91095 | -84.66911 | 2951 ft | 166 kts | 357° |
| 2026-05-07 20:10 | 38.92197 | -84.66910 | 2981 ft | 154 kts | 356° |
| 2026-05-07 20:10 | 38.93258 | -84.66909 | 2934 ft | 151 kts | 356° |
| 2026-05-07 20:11 | 38.94306 | -84.66904 | 2742 ft | 151 kts | 356° |
| 2026-05-07 20:11 | 38.95369 | -84.66909 | 2516 ft | 155 kts | 356° |
| 2026-05-07 20:11 | 38.96442 | -84.66904 | 2290 ft | 155 kts | 356° |
| 2026-05-07 20:11 | 38.97515 | -84.66898 | 2090 ft | 153 kts | 357° |
| 2026-05-07 20:12 | 38.98577 | -84.66894 | 1882 ft | 153 kts | 358° |
| 2026-05-07 20:12 | 38.99637 | -84.66890 | 1649 ft | 154 kts | 359° |
| 2026-05-07 20:12 | 39.00710 | -84.66867 | 1438 ft | 154 kts | 358° |
| 2026-05-07 20:12 | 39.01785 | -84.66854 | 1223 ft | 151 kts | 356° |
| 2026-05-07 20:13 | 39.02835 | -84.66897 | 1022 ft | 151 kts | 359° |
| 2026-05-07 20:13 | 39.03860 | -84.66882 | 899 ft | 141 kts | 0° |
| 2026-05-07 20:13 | 39.04723 | -84.66877 | 892 ft | 101 kts | 0° |
| 2026-05-07 20:13 | 39.05269 | -84.66873 | 888 ft | 63 kts | 0° |
| 2026-05-07 20:14 | 39.05529 | -84.66747 | 886 ft | 27 kts | 78° |
| 2026-05-07 20:14 | 39.05528 | -84.66670 | 885 ft | 0 kts | 94° |
| 2026-05-07 20:16 | 39.05528 | -84.66664 | 885 ft | 1 kts | 98° |
| 2026-05-07 20:16 | 39.05523 | -84.66652 | 885 ft | 4 kts | 117° |
| 2026-05-07 20:17 | 39.05480 | -84.66629 | 885 ft | 7 kts | 175° |
| 2026-05-07 20:17 | 39.05427 | -84.66629 | 885 ft | 8 kts | 181° |
| 2026-05-07 20:17 | 39.05371 | -84.66631 | 885 ft | 9 kts | 181° |
| 2026-05-07 20:17 | 39.05304 | -84.66633 | 885 ft | 10 kts | 184° |
| 2026-05-07 20:18 | 39.05237 | -84.66678 | 885 ft | 15 kts | 223° |
| 2026-05-07 20:18 | 39.05127 | -84.66726 | 886 ft | 17 kts | 184° |
| 2026-05-07 20:18 | 39.05011 | -84.66726 | 887 ft | 17 kts | 178° |
| 2026-05-07 20:18 | 39.04897 | -84.66720 | 887 ft | 16 kts | 177° |
| 2026-05-07 20:19 | 39.04789 | -84.66726 | 889 ft | 15 kts | 186° |
| 2026-05-07 20:19 | 39.04690 | -84.66732 | 891 ft | 13 kts | 180° |
| 2026-05-07 20:19 | 39.04599 | -84.66730 | 891 ft | 14 kts | 179° |
| 2026-05-07 20:19 | 39.04450 | -84.66729 | 887 ft | 30 kts | 179° |
| 2026-05-07 20:20 | 39.04238 | -84.66726 | 885 ft | 30 kts | 180° |
| 2026-05-07 20:20 | 39.04028 | -84.66728 | 886 ft | 30 kts | 183° |
| 2026-05-07 20:20 | 39.03830 | -84.66728 | 885 ft | 24 kts | 178° |
| 2026-05-07 20:20 | 39.03714 | -84.66726 | 886 ft | 14 kts | 180° |
| 2026-05-07 20:21 | 39.03617 | -84.66717 | 887 ft | 13 kts | 152° |
| 2026-05-07 20:21 | 39.03592 | -84.66610 | 885 ft | 13 kts | 93° |
| 2026-05-07 20:21 | 39.03592 | -84.66507 | 885 ft | 9 kts | 89° |
| 2026-05-07 20:21 | 39.03592 | -84.66421 | 885 ft | 10 kts | 90° |
| 2026-05-07 20:22 | 39.03593 | -84.66345 | 885 ft | 8 kts | 89° |
| 2026-05-07 20:22 | 39.03589 | -84.66289 | 885 ft | 0 kts | 96° |
| 2026-05-07 20:22 | 39.03589 | -84.66282 | 885 ft | 1 kts | 96° |
| 2026-05-07 20:22 | 39.03588 | -84.66269 | 885 ft | 2 kts | 96° |
| 2026-05-07 20:23 | 39.03586 | -84.66250 | 885 ft | 2 kts | 96° |
| 2026-05-07 20:23 | 39.03585 | -84.66229 | 885 ft | 3 kts | 92° |
| 2026-05-07 20:23 | 39.03585 | -84.66211 | 885 ft | 0 kts | 92° |
| 2026-05-07 20:23 | 39.03585 | -84.66207 | 885 ft | 1 kts | 92° |
| 2026-05-07 20:24 | 39.03585 | -84.66197 | 885 ft | 1 kts | 91° |
| 2026-05-07 20:24 | 39.03584 | -84.66182 | 885 ft | 2 kts | 93° |
| 2026-05-07 20:24 | 39.03583 | -84.66164 | 885 ft | 2 kts | 95° |
| 2026-05-07 20:24 | 39.03578 | -84.66145 | 885 ft | 2 kts | 115° |
| 2026-05-07 20:25 | 39.03552 | -84.66130 | 885 ft | 8 kts | 178° |
| 2026-05-07 20:25 | 39.03499 | -84.66146 | 885 ft | 8 kts | 193° |
| 2026-05-07 20:25 | 39.03444 | -84.66163 | 885 ft | 8 kts | 193° |
| 2026-05-07 20:25 | 39.03389 | -84.66165 | 885 ft | 8 kts | 189° |
| 2026-05-07 20:26 | 39.03349 | -84.66207 | 885 ft | 8 kts | 236° |
| 2026-05-07 20:26 | 39.03313 | -84.66255 | 885 ft | 8 kts | 213° |
| 2026-05-07 20:26 | 39.03263 | -84.66271 | 885 ft | 8 kts | 183° |
| 2026-05-07 20:26 | 39.03216 | -84.66258 | 885 ft | 6 kts | 142° |
| 2026-05-07 20:27 | 39.03210 | -84.66215 | 885 ft | 4 kts | 84° |
| 2026-05-07 20:27 | 39.03210 | -84.66191 | 885 ft | 0 kts | 88° |